sensor_id;sensor_type;location;lat;lon;timestamp;P1;durP1;ratioP1;P2;durP2;ratioP2
64816;SDS011;69411;45.656;11.740;2023-06-22T00:01:45;20.45;;;15.63;;
64816;SDS011;69411;45.656;11.740;2023-06-22T00:04:12;19.45;;;14.18;;
64816;SDS011;69411;45.656;11.740;2023-06-22T00:09:04;15.90;;;12.65;;
64816;SDS011;69411;45.656;11.740;2023-06-22T00:11:32;14.38;;;11.95;;
64816;SDS011;69411;45.656;11.740;2023-06-22T00:13:59;15.35;;;11.48;;
64816;SDS011;69411;45.656;11.740;2023-06-22T00:16:25;16.10;;;12.68;;
64816;SDS011;69411;45.656;11.740;2023-06-22T00:18:51;15.35;;;11.80;;
64816;SDS011;69411;45.656;11.740;2023-06-22T00:21:17;15.52;;;11.98;;
64816;SDS011;69411;45.656;11.740;2023-06-22T00:23:46;16.15;;;13.00;;
64816;SDS011;69411;45.656;11.740;2023-06-22T00:26:12;17.23;;;14.23;;
64816;SDS011;69411;45.656;11.740;2023-06-22T00:28:39;17.77;;;14.52;;
64816;SDS011;69411;45.656;11.740;2023-06-22T00:31:05;16.17;;;13.20;;
64816;SDS011;69411;45.656;11.740;2023-06-22T00:33:31;18.58;;;13.27;;
64816;SDS011;69411;45.656;11.740;2023-06-22T00:35:57;18.77;;;13.65;;
64816;SDS011;69411;45.656;11.740;2023-06-22T00:38:22;20.55;;;14.25;;
64816;SDS011;69411;45.656;11.740;2023-06-22T00:40:48;18.35;;;13.73;;
64816;SDS011;69411;45.656;11.740;2023-06-22T00:43:15;17.55;;;13.18;;
64816;SDS011;69411;45.656;11.740;2023-06-22T00:45:41;16.60;;;13.25;;
64816;SDS011;69411;45.656;11.740;2023-06-22T00:48:07;17.00;;;13.95;;
64816;SDS011;69411;45.656;11.740;2023-06-22T00:50:33;16.13;;;12.98;;
64816;SDS011;69411;45.656;11.740;2023-06-22T00:53:05;16.48;;;13.90;;
64816;SDS011;69411;45.656;11.740;2023-06-22T00:55:34;23.08;;;18.40;;
64816;SDS011;69411;45.656;11.740;2023-06-22T00:58:03;21.55;;;15.63;;
64816;SDS011;69411;45.656;11.740;2023-06-22T01:00:33;20.80;;;16.52;;
64816;SDS011;69411;45.656;11.740;2023-06-22T01:02:59;21.05;;;16.27;;
64816;SDS011;69411;45.656;11.740;2023-06-22T01:05:27;19.85;;;15.45;;
64816;SDS011;69411;45.656;11.740;2023-06-22T01:13:46;17.55;;;13.75;;
64816;SDS011;69411;45.656;11.740;2023-06-22T01:16:25;20.73;;;14.90;;
64816;SDS011;69411;45.656;11.740;2023-06-22T01:18:55;17.42;;;14.73;;
64816;SDS011;69411;45.656;11.740;2023-06-22T01:21:23;23.67;;;16.58;;
64816;SDS011;69411;45.656;11.740;2023-06-22T01:24:02;17.25;;;14.18;;
64816;SDS011;69411;45.656;11.740;2023-06-22T01:26:38;19.00;;;15.68;;
64816;SDS011;69411;45.656;11.740;2023-06-22T01:29:13;19.42;;;15.32;;
64816;SDS011;69411;45.656;11.740;2023-06-22T01:31:42;19.48;;;15.05;;
64816;SDS011;69411;45.656;11.740;2023-06-22T01:34:09;24.73;;;19.08;;
64816;SDS011;69411;45.656;11.740;2023-06-22T01:36:37;23.92;;;17.90;;
64816;SDS011;69411;45.656;11.740;2023-06-22T01:39:04;20.15;;;16.60;;
64816;SDS011;69411;45.656;11.740;2023-06-22T01:41:34;22.77;;;16.80;;
64816;SDS011;69411;45.656;11.740;2023-06-22T01:44:02;19.55;;;15.52;;
64816;SDS011;69411;45.656;11.740;2023-06-22T01:46:33;21.77;;;16.63;;
64816;SDS011;69411;45.656;11.740;2023-06-22T01:49:04;20.70;;;15.98;;
64816;SDS011;69411;45.656;11.740;2023-06-22T01:51:31;19.88;;;15.52;;
64816;SDS011;69411;45.656;11.740;2023-06-22T01:53:57;19.30;;;14.68;;
64816;SDS011;69411;45.656;11.740;2023-06-22T02:01:50;20.70;;;15.75;;
64816;SDS011;69411;45.656;11.740;2023-06-22T02:04:24;20.75;;;16.80;;
64816;SDS011;69411;45.656;11.740;2023-06-22T02:06:57;23.55;;;17.67;;
64816;SDS011;69411;45.656;11.740;2023-06-22T02:09:25;20.23;;;16.77;;
64816;SDS011;69411;45.656;11.740;2023-06-22T02:11:55;20.10;;;15.68;;
64816;SDS011;69411;45.656;11.740;2023-06-22T02:14:23;20.27;;;15.85;;
64816;SDS011;69411;45.656;11.740;2023-06-22T02:16:52;20.80;;;15.95;;
64816;SDS011;69411;45.656;11.740;2023-06-22T02:19:23;18.85;;;15.48;;
64816;SDS011;69411;45.656;11.740;2023-06-22T02:21:51;19.88;;;15.82;;
64816;SDS011;69411;45.656;11.740;2023-06-22T02:24:18;22.15;;;16.10;;
64816;SDS011;69411;45.656;11.740;2023-06-22T02:27:07;20.45;;;16.73;;
64816;SDS011;69411;45.656;11.740;2023-06-22T02:29:36;21.30;;;14.98;;
64816;SDS011;69411;45.656;11.740;2023-06-22T02:32:04;19.48;;;15.68;;
64816;SDS011;69411;45.656;11.740;2023-06-22T02:34:31;21.25;;;16.15;;
64816;SDS011;69411;45.656;11.740;2023-06-22T02:36:59;19.42;;;15.23;;
64816;SDS011;69411;45.656;11.740;2023-06-22T02:39:27;21.77;;;15.95;;
64816;SDS011;69411;45.656;11.740;2023-06-22T02:41:53;20.23;;;16.55;;
64816;SDS011;69411;45.656;11.740;2023-06-22T02:44:20;22.50;;;16.40;;
64816;SDS011;69411;45.656;11.740;2023-06-22T02:46:47;19.30;;;15.48;;
64816;SDS011;69411;45.656;11.740;2023-06-22T02:49:13;22.15;;;15.55;;
64816;SDS011;69411;45.656;11.740;2023-06-22T02:51:41;23.52;;;17.70;;
64816;SDS011;69411;45.656;11.740;2023-06-22T02:54:09;25.08;;;18.20;;
64816;SDS011;69411;45.656;11.740;2023-06-22T02:56:35;21.20;;;16.38;;
64816;SDS011;69411;45.656;11.740;2023-06-22T02:59:02;19.40;;;15.30;;
64816;SDS011;69411;45.656;11.740;2023-06-22T03:01:28;20.63;;;16.65;;
64816;SDS011;69411;45.656;11.740;2023-06-22T03:04:03;24.17;;;19.13;;
64816;SDS011;69411;45.656;11.740;2023-06-22T03:06:30;19.13;;;15.93;;
64816;SDS011;69411;45.656;11.740;2023-06-22T03:08:59;18.20;;;15.38;;
64816;SDS011;69411;45.656;11.740;2023-06-22T03:11:26;20.08;;;16.17;;
64816;SDS011;69411;45.656;11.740;2023-06-22T03:13:52;24.30;;;18.67;;
64816;SDS011;69411;45.656;11.740;2023-06-22T03:16:19;21.40;;;16.55;;
64816;SDS011;69411;45.656;11.740;2023-06-22T03:18:45;22.58;;;17.95;;
64816;SDS011;69411;45.656;11.740;2023-06-22T03:21:11;22.65;;;15.48;;
64816;SDS011;69411;45.656;11.740;2023-06-22T03:23:37;24.08;;;18.10;;
64816;SDS011;69411;45.656;11.740;2023-06-22T03:26:03;20.50;;;15.75;;
64816;SDS011;69411;45.656;11.740;2023-06-22T03:28:29;19.13;;;15.52;;
64816;SDS011;69411;45.656;11.740;2023-06-22T03:30:57;20.20;;;15.52;;
64816;SDS011;69411;45.656;11.740;2023-06-22T03:33:23;22.90;;;16.80;;
64816;SDS011;69411;45.656;11.740;2023-06-22T03:35:49;19.70;;;15.18;;
64816;SDS011;69411;45.656;11.740;2023-06-22T03:38:16;24.77;;;18.27;;
64816;SDS011;69411;45.656;11.740;2023-06-22T03:40:42;26.50;;;19.63;;
64816;SDS011;69411;45.656;11.740;2023-06-22T03:43:08;25.63;;;18.45;;
64816;SDS011;69411;45.656;11.740;2023-06-22T03:45:34;23.13;;;16.67;;
64816;SDS011;69411;45.656;11.740;2023-06-22T03:48:00;23.75;;;17.20;;
64816;SDS011;69411;45.656;11.740;2023-06-22T03:50:27;23.60;;;17.45;;
64816;SDS011;69411;45.656;11.740;2023-06-22T03:52:53;21.60;;;17.17;;
64816;SDS011;69411;45.656;11.740;2023-06-22T03:55:19;22.92;;;18.38;;
64816;SDS011;69411;45.656;11.740;2023-06-22T03:57:45;20.23;;;17.73;;
64816;SDS011;69411;45.656;11.740;2023-06-22T04:00:11;25.63;;;19.40;;
64816;SDS011;69411;45.656;11.740;2023-06-22T04:02:38;24.17;;;18.75;;
64816;SDS011;69411;45.656;11.740;2023-06-22T04:05:04;22.23;;;18.50;;
64816;SDS011;69411;45.656;11.740;2023-06-22T04:07:30;25.98;;;19.50;;
64816;SDS011;69411;45.656;11.740;2023-06-22T04:09:56;28.17;;;21.48;;
64816;SDS011;69411;45.656;11.740;2023-06-22T04:12:22;24.90;;;19.15;;
64816;SDS011;69411;45.656;11.740;2023-06-22T04:14:48;23.80;;;19.40;;
64816;SDS011;69411;45.656;11.740;2023-06-22T04:17:14;21.83;;;18.58;;
64816;SDS011;69411;45.656;11.740;2023-06-22T04:19:40;25.90;;;20.90;;
64816;SDS011;69411;45.656;11.740;2023-06-22T04:22:07;23.90;;;19.35;;
64816;SDS011;69411;45.656;11.740;2023-06-22T04:24:33;22.17;;;17.10;;
64816;SDS011;69411;45.656;11.740;2023-06-22T04:26:59;23.23;;;17.27;;
64816;SDS011;69411;45.656;11.740;2023-06-22T04:29:28;22.38;;;17.33;;
64816;SDS011;69411;45.656;11.740;2023-06-22T04:31:58;23.65;;;18.05;;
64816;SDS011;69411;45.656;11.740;2023-06-22T04:34:28;22.10;;;17.50;;
64816;SDS011;69411;45.656;11.740;2023-06-22T04:36:54;23.50;;;19.27;;
64816;SDS011;69411;45.656;11.740;2023-06-22T04:39:20;26.25;;;19.80;;
64816;SDS011;69411;45.656;11.740;2023-06-22T04:41:51;24.52;;;18.05;;
64816;SDS011;69411;45.656;11.740;2023-06-22T04:44:18;29.05;;;20.52;;
64816;SDS011;69411;45.656;11.740;2023-06-22T04:49:18;25.15;;;20.20;;
64816;SDS011;69411;45.656;11.740;2023-06-22T04:51:48;22.05;;;18.42;;
64816;SDS011;69411;45.656;11.740;2023-06-22T04:54:20;25.60;;;19.48;;
64816;SDS011;69411;45.656;11.740;2023-06-22T04:56:46;26.65;;;20.70;;
64816;SDS011;69411;45.656;11.740;2023-06-22T04:59:13;21.67;;;16.95;;
64816;SDS011;69411;45.656;11.740;2023-06-22T05:01:40;29.02;;;19.77;;
64816;SDS011;69411;45.656;11.740;2023-06-22T05:04:06;25.75;;;20.38;;
64816;SDS011;69411;45.656;11.740;2023-06-22T05:06:39;29.23;;;20.05;;
64816;SDS011;69411;45.656;11.740;2023-06-22T05:09:05;22.23;;;18.40;;
64816;SDS011;69411;45.656;11.740;2023-06-22T05:11:31;25.33;;;18.45;;
64816;SDS011;69411;45.656;11.740;2023-06-22T05:13:59;29.38;;;21.17;;
64816;SDS011;69411;45.656;11.740;2023-06-22T05:16:25;24.80;;;18.13;;
64816;SDS011;69411;45.656;11.740;2023-06-22T05:18:54;25.83;;;19.05;;
64816;SDS011;69411;45.656;11.740;2023-06-22T05:26:19;28.67;;;20.33;;
64816;SDS011;69411;45.656;11.740;2023-06-22T05:28:46;29.58;;;19.83;;
64816;SDS011;69411;45.656;11.740;2023-06-22T05:33:38;26.20;;;20.38;;
64816;SDS011;69411;45.656;11.740;2023-06-22T05:36:04;25.00;;;19.15;;
64816;SDS011;69411;45.656;11.740;2023-06-22T05:38:30;25.13;;;18.58;;
64816;SDS011;69411;45.656;11.740;2023-06-22T05:40:56;26.23;;;19.23;;
64816;SDS011;69411;45.656;11.740;2023-06-22T05:43:22;24.25;;;18.98;;
64816;SDS011;69411;45.656;11.740;2023-06-22T05:45:48;23.90;;;18.75;;
64816;SDS011;69411;45.656;11.740;2023-06-22T05:48:15;24.25;;;17.77;;
64816;SDS011;69411;45.656;11.740;2023-06-22T05:50:42;22.13;;;17.35;;
64816;SDS011;69411;45.656;11.740;2023-06-22T05:53:08;21.65;;;17.33;;
64816;SDS011;69411;45.656;11.740;2023-06-22T05:55:34;20.80;;;16.00;;
64816;SDS011;69411;45.656;11.740;2023-06-22T05:58:00;23.58;;;18.42;;
64816;SDS011;69411;45.656;11.740;2023-06-22T06:00:26;22.30;;;17.77;;
64816;SDS011;69411;45.656;11.740;2023-06-22T06:02:52;22.80;;;16.92;;
64816;SDS011;69411;45.656;11.740;2023-06-22T06:05:18;27.55;;;19.80;;
64816;SDS011;69411;45.656;11.740;2023-06-22T06:07:44;22.33;;;16.92;;
64816;SDS011;69411;45.656;11.740;2023-06-22T06:10:11;18.80;;;16.05;;
64816;SDS011;69411;45.656;11.740;2023-06-22T06:12:37;20.38;;;17.30;;
64816;SDS011;69411;45.656;11.740;2023-06-22T06:15:04;19.65;;;15.00;;
64816;SDS011;69411;45.656;11.740;2023-06-22T06:17:30;19.23;;;16.17;;
64816;SDS011;69411;45.656;11.740;2023-06-22T06:19:58;20.42;;;15.43;;
64816;SDS011;69411;45.656;11.740;2023-06-22T06:22:25;19.48;;;15.10;;
64816;SDS011;69411;45.656;11.740;2023-06-22T06:24:50;22.90;;;15.68;;
64816;SDS011;69411;45.656;11.740;2023-06-22T06:27:16;18.58;;;15.05;;
64816;SDS011;69411;45.656;11.740;2023-06-22T06:29:45;19.30;;;15.15;;
64816;SDS011;69411;45.656;11.740;2023-06-22T06:32:13;17.05;;;14.00;;
64816;SDS011;69411;45.656;11.740;2023-06-22T06:34:40;24.92;;;17.88;;
64816;SDS011;69411;45.656;11.740;2023-06-22T06:37:06;18.10;;;14.90;;
64816;SDS011;69411;45.656;11.740;2023-06-22T06:39:31;22.52;;;16.98;;
64816;SDS011;69411;45.656;11.740;2023-06-22T06:41:57;19.23;;;15.18;;
64816;SDS011;69411;45.656;11.740;2023-06-22T06:44:23;25.00;;;17.95;;
64816;SDS011;69411;45.656;11.740;2023-06-22T06:46:49;22.73;;;16.33;;
64816;SDS011;69411;45.656;11.740;2023-06-22T06:49:15;19.83;;;15.90;;
64816;SDS011;69411;45.656;11.740;2023-06-22T06:51:41;20.92;;;14.80;;
64816;SDS011;69411;45.656;11.740;2023-06-22T06:54:07;21.33;;;15.63;;
64816;SDS011;69411;45.656;11.740;2023-06-22T06:56:33;21.15;;;14.65;;
64816;SDS011;69411;45.656;11.740;2023-06-22T06:58:59;20.77;;;16.48;;
64816;SDS011;69411;45.656;11.740;2023-06-22T07:01:24;18.67;;;15.23;;
64816;SDS011;69411;45.656;11.740;2023-06-22T07:03:50;23.13;;;18.27;;
64816;SDS011;69411;45.656;11.740;2023-06-22T07:06:16;23.25;;;17.02;;
64816;SDS011;69411;45.656;11.740;2023-06-22T07:08:42;20.17;;;15.68;;
64816;SDS011;69411;45.656;11.740;2023-06-22T07:11:08;18.10;;;14.93;;
64816;SDS011;69411;45.656;11.740;2023-06-22T07:13:34;20.52;;;15.70;;
64816;SDS011;69411;45.656;11.740;2023-06-22T07:16:00;19.55;;;14.98;;
64816;SDS011;69411;45.656;11.740;2023-06-22T07:18:26;18.85;;;14.88;;
64816;SDS011;69411;45.656;11.740;2023-06-22T07:20:52;19.58;;;15.07;;
64816;SDS011;69411;45.656;11.740;2023-06-22T07:23:18;20.75;;;16.65;;
64816;SDS011;69411;45.656;11.740;2023-06-22T07:25:44;22.17;;;17.00;;
64816;SDS011;69411;45.656;11.740;2023-06-22T07:28:10;18.55;;;15.35;;
64816;SDS011;69411;45.656;11.740;2023-06-22T07:30:36;22.90;;;18.13;;
64816;SDS011;69411;45.656;11.740;2023-06-22T07:33:02;22.80;;;16.90;;
64816;SDS011;69411;45.656;11.740;2023-06-22T07:35:32;23.63;;;17.63;;
64816;SDS011;69411;45.656;11.740;2023-06-22T07:37:58;22.02;;;15.48;;
64816;SDS011;69411;45.656;11.740;2023-06-22T07:40:25;18.52;;;14.80;;
64816;SDS011;69411;45.656;11.740;2023-06-22T07:42:51;16.73;;;14.18;;
64816;SDS011;69411;45.656;11.740;2023-06-22T07:45:18;18.23;;;14.32;;
64816;SDS011;69411;45.656;11.740;2023-06-22T07:47:44;16.88;;;14.98;;
64816;SDS011;69411;45.656;11.740;2023-06-22T07:50:10;16.65;;;13.93;;
64816;SDS011;69411;45.656;11.740;2023-06-22T07:52:36;17.52;;;13.88;;
64816;SDS011;69411;45.656;11.740;2023-06-22T07:55:02;16.05;;;14.02;;
64816;SDS011;69411;45.656;11.740;2023-06-22T07:57:29;22.25;;;17.23;;
64816;SDS011;69411;45.656;11.740;2023-06-22T08:00:02;20.05;;;15.02;;
64816;SDS011;69411;45.656;11.740;2023-06-22T08:02:36;16.30;;;14.07;;
64816;SDS011;69411;45.656;11.740;2023-06-22T08:05:02;18.17;;;14.63;;
64816;SDS011;69411;45.656;11.740;2023-06-22T08:07:29;23.65;;;18.35;;
64816;SDS011;69411;45.656;11.740;2023-06-22T08:09:58;19.63;;;14.80;;
64816;SDS011;69411;45.656;11.740;2023-06-22T08:12:24;18.15;;;13.45;;
64816;SDS011;69411;45.656;11.740;2023-06-22T08:14:50;21.27;;;15.32;;
64816;SDS011;69411;45.656;11.740;2023-06-22T08:17:16;19.92;;;16.38;;
64816;SDS011;69411;45.656;11.740;2023-06-22T08:19:42;17.70;;;14.05;;
64816;SDS011;69411;45.656;11.740;2023-06-22T08:22:08;17.30;;;14.50;;
64816;SDS011;69411;45.656;11.740;2023-06-22T08:24:34;25.08;;;16.15;;
64816;SDS011;69411;45.656;11.740;2023-06-22T08:27:00;19.23;;;15.82;;
64816;SDS011;69411;45.656;11.740;2023-06-22T08:29:26;16.83;;;13.90;;
64816;SDS011;69411;45.656;11.740;2023-06-22T08:31:52;20.05;;;15.45;;
64816;SDS011;69411;45.656;11.740;2023-06-22T08:34:18;16.58;;;13.18;;
64816;SDS011;69411;45.656;11.740;2023-06-22T08:36:47;20.35;;;15.40;;
64816;SDS011;69411;45.656;11.740;2023-06-22T08:39:16;16.77;;;14.43;;
64816;SDS011;69411;45.656;11.740;2023-06-22T08:41:43;16.65;;;13.57;;
64816;SDS011;69411;45.656;11.740;2023-06-22T08:44:10;15.80;;;13.73;;
64816;SDS011;69411;45.656;11.740;2023-06-22T08:46:36;18.30;;;13.43;;
64816;SDS011;69411;45.656;11.740;2023-06-22T08:49:04;18.75;;;13.23;;
64816;SDS011;69411;45.656;11.740;2023-06-22T08:51:30;23.55;;;15.10;;
64816;SDS011;69411;45.656;11.740;2023-06-22T08:53:56;23.35;;;15.48;;
64816;SDS011;69411;45.656;11.740;2023-06-22T08:56:22;25.63;;;17.98;;
64816;SDS011;69411;45.656;11.740;2023-06-22T08:58:48;21.20;;;16.13;;
64816;SDS011;69411;45.656;11.740;2023-06-22T09:01:13;21.20;;;17.73;;
64816;SDS011;69411;45.656;11.740;2023-06-22T09:03:41;22.75;;;17.85;;
64816;SDS011;69411;45.656;11.740;2023-06-22T09:06:07;21.13;;;16.88;;
64816;SDS011;69411;45.656;11.740;2023-06-22T09:08:37;22.75;;;16.40;;
64816;SDS011;69411;45.656;11.740;2023-06-22T09:11:03;20.92;;;15.05;;
64816;SDS011;69411;45.656;11.740;2023-06-22T09:13:30;23.80;;;18.25;;
64816;SDS011;69411;45.656;11.740;2023-06-22T09:15:57;24.90;;;18.02;;
64816;SDS011;69411;45.656;11.740;2023-06-22T09:18:23;21.80;;;16.50;;
64816;SDS011;69411;45.656;11.740;2023-06-22T09:20:49;23.02;;;16.02;;
64816;SDS011;69411;45.656;11.740;2023-06-22T09:23:15;20.77;;;16.23;;
64816;SDS011;69411;45.656;11.740;2023-06-22T09:25:41;21.23;;;17.27;;
64816;SDS011;69411;45.656;11.740;2023-06-22T09:28:07;24.38;;;17.35;;
64816;SDS011;69411;45.656;11.740;2023-06-22T09:30:33;18.98;;;16.08;;
64816;SDS011;69411;45.656;11.740;2023-06-22T09:32:59;22.80;;;17.13;;
64816;SDS011;69411;45.656;11.740;2023-06-22T09:35:26;24.98;;;18.15;;
64816;SDS011;69411;45.656;11.740;2023-06-22T09:37:54;21.33;;;15.82;;
64816;SDS011;69411;45.656;11.740;2023-06-22T09:40:24;21.85;;;16.08;;
64816;SDS011;69411;45.656;11.740;2023-06-22T09:42:50;19.13;;;14.23;;
64816;SDS011;69411;45.656;11.740;2023-06-22T09:45:16;14.55;;;11.63;;
64816;SDS011;69411;45.656;11.740;2023-06-22T09:47:42;19.00;;;12.82;;
64816;SDS011;69411;45.656;11.740;2023-06-22T09:50:09;17.25;;;11.55;;
64816;SDS011;69411;45.656;11.740;2023-06-22T09:52:36;17.98;;;12.45;;
64816;SDS011;69411;45.656;11.740;2023-06-22T09:55:04;15.35;;;11.88;;
64816;SDS011;69411;45.656;11.740;2023-06-22T09:57:31;18.67;;;12.88;;
64816;SDS011;69411;45.656;11.740;2023-06-22T10:00:03;13.05;;;9.75;;
64816;SDS011;69411;45.656;11.740;2023-06-22T10:02:39;11.90;;;9.20;;
64816;SDS011;69411;45.656;11.740;2023-06-22T10:05:12;16.35;;;10.48;;
64816;SDS011;69411;45.656;11.740;2023-06-22T10:07:39;18.85;;;11.40;;
64816;SDS011;69411;45.656;11.740;2023-06-22T10:10:08;14.73;;;10.90;;
64816;SDS011;69411;45.656;11.740;2023-06-22T10:15:00;15.90;;;10.80;;
64816;SDS011;69411;45.656;11.740;2023-06-22T10:17:28;16.98;;;11.02;;
64816;SDS011;69411;45.656;11.740;2023-06-22T10:19:54;13.35;;;9.73;;
64816;SDS011;69411;45.656;11.740;2023-06-22T10:22:20;13.95;;;9.48;;
64816;SDS011;69411;45.656;11.740;2023-06-22T10:24:46;14.70;;;10.73;;
64816;SDS011;69411;45.656;11.740;2023-06-22T10:27:12;17.83;;;10.95;;
64816;SDS011;69411;45.656;11.740;2023-06-22T10:29:39;19.55;;;10.63;;
64816;SDS011;69411;45.656;11.740;2023-06-22T10:32:11;18.42;;;11.82;;
64816;SDS011;69411;45.656;11.740;2023-06-22T10:34:37;14.98;;;10.80;;
64816;SDS011;69411;45.656;11.740;2023-06-22T10:37:05;21.25;;;12.40;;
64816;SDS011;69411;45.656;11.740;2023-06-22T10:39:32;17.33;;;12.38;;
64816;SDS011;69411;45.656;11.740;2023-06-22T10:41:58;15.45;;;11.40;;
64816;SDS011;69411;45.656;11.740;2023-06-22T10:44:26;15.60;;;11.07;;
64816;SDS011;69411;45.656;11.740;2023-06-22T10:46:52;14.88;;;11.25;;
64816;SDS011;69411;45.656;11.740;2023-06-22T10:51:45;15.30;;;10.55;;
64816;SDS011;69411;45.656;11.740;2023-06-22T10:54:18;13.77;;;9.38;;
64816;SDS011;69411;45.656;11.740;2023-06-22T10:56:44;12.70;;;9.68;;
64816;SDS011;69411;45.656;11.740;2023-06-22T10:59:12;14.50;;;8.77;;
64816;SDS011;69411;45.656;11.740;2023-06-22T11:01:45;13.38;;;9.27;;
64816;SDS011;69411;45.656;11.740;2023-06-22T11:04:11;10.90;;;7.75;;
64816;SDS011;69411;45.656;11.740;2023-06-22T11:06:37;13.98;;;8.18;;
64816;SDS011;69411;45.656;11.740;2023-06-22T11:09:04;12.77;;;8.80;;
64816;SDS011;69411;45.656;11.740;2023-06-22T11:11:31;10.88;;;8.00;;
64816;SDS011;69411;45.656;11.740;2023-06-22T11:14:07;17.05;;;7.95;;
64816;SDS011;69411;45.656;11.740;2023-06-22T11:16:33;12.75;;;9.23;;
64816;SDS011;69411;45.656;11.740;2023-06-22T11:18:59;12.38;;;8.48;;
64816;SDS011;69411;45.656;11.740;2023-06-22T11:21:25;14.73;;;8.90;;
64816;SDS011;69411;45.656;11.740;2023-06-22T11:23:51;12.50;;;8.68;;
64816;SDS011;69411;45.656;11.740;2023-06-22T11:26:18;12.68;;;8.52;;
64816;SDS011;69411;45.656;11.740;2023-06-22T11:28:43;14.32;;;8.38;;
64816;SDS011;69411;45.656;11.740;2023-06-22T11:31:09;10.75;;;7.82;;
64816;SDS011;69411;45.656;11.740;2023-06-22T11:33:35;12.00;;;8.48;;
64816;SDS011;69411;45.656;11.740;2023-06-22T11:36:01;10.35;;;7.32;;
64816;SDS011;69411;45.656;11.740;2023-06-22T11:38:27;11.60;;;7.30;;
64816;SDS011;69411;45.656;11.740;2023-06-22T11:41:02;14.40;;;8.55;;
64816;SDS011;69411;45.656;11.740;2023-06-22T11:43:28;13.57;;;8.25;;
64816;SDS011;69411;45.656;11.740;2023-06-22T11:45:55;11.23;;;7.20;;
64816;SDS011;69411;45.656;11.740;2023-06-22T11:48:25;15.45;;;8.05;;
64816;SDS011;69411;45.656;11.740;2023-06-22T11:50:51;13.02;;;7.97;;
64816;SDS011;69411;45.656;11.740;2023-06-22T11:53:17;13.88;;;8.38;;
64816;SDS011;69411;45.656;11.740;2023-06-22T11:55:44;13.77;;;7.47;;
64816;SDS011;69411;45.656;11.740;2023-06-22T11:58:10;9.85;;;6.38;;
64816;SDS011;69411;45.656;11.740;2023-06-22T12:00:38;9.05;;;6.72;;
64816;SDS011;69411;45.656;11.740;2023-06-22T12:03:05;11.40;;;6.97;;
64816;SDS011;69411;45.656;11.740;2023-06-22T12:05:31;10.63;;;6.80;;
64816;SDS011;69411;45.656;11.740;2023-06-22T12:07:57;9.95;;;6.47;;
64816;SDS011;69411;45.656;11.740;2023-06-22T12:10:24;12.65;;;7.40;;
64816;SDS011;69411;45.656;11.740;2023-06-22T12:12:54;13.75;;;6.93;;
64816;SDS011;69411;45.656;11.740;2023-06-22T12:15:19;12.13;;;7.30;;
64816;SDS011;69411;45.656;11.740;2023-06-22T12:17:46;13.45;;;6.68;;
64816;SDS011;69411;45.656;11.740;2023-06-22T12:20:13;10.05;;;7.05;;
64816;SDS011;69411;45.656;11.740;2023-06-22T12:22:49;12.43;;;7.22;;
64816;SDS011;69411;45.656;11.740;2023-06-22T12:25:17;10.75;;;6.55;;
64816;SDS011;69411;45.656;11.740;2023-06-22T12:27:47;12.90;;;7.25;;
64816;SDS011;69411;45.656;11.740;2023-06-22T12:30:13;14.02;;;7.45;;
64816;SDS011;69411;45.656;11.740;2023-06-22T12:32:45;11.20;;;6.88;;
64816;SDS011;69411;45.656;11.740;2023-06-22T12:35:16;12.07;;;7.00;;
64816;SDS011;69411;45.656;11.740;2023-06-22T12:44:58;11.68;;;7.47;;
64816;SDS011;69411;45.656;11.740;2023-06-22T12:47:24;8.57;;;6.63;;
64816;SDS011;69411;45.656;11.740;2023-06-22T12:49:50;12.52;;;7.90;;
64816;SDS011;69411;45.656;11.740;2023-06-22T12:52:16;10.23;;;7.75;;
64816;SDS011;69411;45.656;11.740;2023-06-22T12:54:42;11.55;;;7.22;;
64816;SDS011;69411;45.656;11.740;2023-06-22T12:57:08;15.55;;;7.18;;
64816;SDS011;69411;45.656;11.740;2023-06-22T12:59:34;14.23;;;7.45;;
64816;SDS011;69411;45.656;11.740;2023-06-22T13:02:00;15.80;;;7.00;;
64816;SDS011;69411;45.656;11.740;2023-06-22T13:04:26;12.27;;;7.03;;
64816;SDS011;69411;45.656;11.740;2023-06-22T13:06:52;21.92;;;7.75;;
64816;SDS011;69411;45.656;11.740;2023-06-22T13:09:18;17.00;;;7.05;;
64816;SDS011;69411;45.656;11.740;2023-06-22T13:11:44;9.63;;;6.63;;
64816;SDS011;69411;45.656;11.740;2023-06-22T13:14:10;9.00;;;6.47;;
64816;SDS011;69411;45.656;11.740;2023-06-22T13:16:36;8.70;;;6.32;;
64816;SDS011;69411;45.656;11.740;2023-06-22T13:19:02;8.35;;;6.88;;
64816;SDS011;69411;45.656;11.740;2023-06-22T13:21:29;9.27;;;6.70;;
64816;SDS011;69411;45.656;11.740;2023-06-22T13:23:56;10.52;;;7.45;;
64816;SDS011;69411;45.656;11.740;2023-06-22T13:26:24;11.10;;;7.50;;
64816;SDS011;69411;45.656;11.740;2023-06-22T13:28:51;10.13;;;6.70;;
64816;SDS011;69411;45.656;11.740;2023-06-22T13:31:17;11.60;;;7.60;;
64816;SDS011;69411;45.656;11.740;2023-06-22T13:33:43;9.98;;;7.00;;
64816;SDS011;69411;45.656;11.740;2023-06-22T13:36:13;13.20;;;7.47;;
64816;SDS011;69411;45.656;11.740;2023-06-22T13:38:39;11.20;;;6.85;;
64816;SDS011;69411;45.656;11.740;2023-06-22T13:41:05;10.93;;;6.55;;
64816;SDS011;69411;45.656;11.740;2023-06-22T13:43:31;11.10;;;8.23;;
64816;SDS011;69411;45.656;11.740;2023-06-22T13:45:58;10.43;;;8.02;;
64816;SDS011;69411;45.656;11.740;2023-06-22T13:48:24;11.38;;;7.97;;
64816;SDS011;69411;45.656;11.740;2023-06-22T13:50:51;10.00;;;7.18;;
64816;SDS011;69411;45.656;11.740;2023-06-22T13:53:18;12.77;;;8.75;;
64816;SDS011;69411;45.656;11.740;2023-06-22T13:55:45;12.27;;;8.98;;
64816;SDS011;69411;45.656;11.740;2023-06-22T13:58:13;10.45;;;7.53;;
64816;SDS011;69411;45.656;11.740;2023-06-22T14:00:39;15.57;;;8.85;;
64816;SDS011;69411;45.656;11.740;2023-06-22T14:03:05;15.75;;;8.73;;
64816;SDS011;69411;45.656;11.740;2023-06-22T14:05:33;15.05;;;10.18;;
64816;SDS011;69411;45.656;11.740;2023-06-22T14:07:59;12.13;;;8.30;;
64816;SDS011;69411;45.656;11.740;2023-06-22T14:10:25;15.52;;;9.25;;
64816;SDS011;69411;45.656;11.740;2023-06-22T14:12:51;15.90;;;9.65;;
64816;SDS011;69411;45.656;11.740;2023-06-22T14:15:18;15.18;;;9.20;;
64816;SDS011;69411;45.656;11.740;2023-06-22T14:17:44;14.35;;;9.48;;
64816;SDS011;69411;45.656;11.740;2023-06-22T14:20:10;13.90;;;8.65;;
64816;SDS011;69411;45.656;11.740;2023-06-22T14:22:36;10.18;;;7.72;;
64816;SDS011;69411;45.656;11.740;2023-06-22T14:25:02;12.00;;;8.95;;
64816;SDS011;69411;45.656;11.740;2023-06-22T14:27:29;12.45;;;8.40;;
64816;SDS011;69411;45.656;11.740;2023-06-22T14:29:55;14.05;;;8.23;;
64816;SDS011;69411;45.656;11.740;2023-06-22T14:32:22;10.10;;;8.07;;
64816;SDS011;69411;45.656;11.740;2023-06-22T14:34:48;12.65;;;8.90;;
64816;SDS011;69411;45.656;11.740;2023-06-22T14:37:15;10.77;;;8.23;;
64816;SDS011;69411;45.656;11.740;2023-06-22T14:39:41;12.23;;;9.60;;
64816;SDS011;69411;45.656;11.740;2023-06-22T14:42:08;12.13;;;9.32;;
64816;SDS011;69411;45.656;11.740;2023-06-22T14:59:30;11.68;;;10.20;;
64816;SDS011;69411;45.656;11.740;2023-06-22T15:01:56;13.18;;;9.00;;
64816;SDS011;69411;45.656;11.740;2023-06-22T15:04:22;15.20;;;9.50;;